Time;durP1;ratioP1;P1;durP2;ratioP2;P2;SDS_P1;SDS_P2;PMS_P1;PMS_P2;Temp;Humidity;BMP_temperature;BMP_pressure;BME280_temperature;BME280_humidity;BME280_pressure;Samples;Min_cycle;Max_cycle;Signal;HPM_P1;HPM_P2
2024/02/11 00:02:17;;;;;;;22.70;15.98;;;9.10;99.90;;;;;;5053929;28;20231;-73
2024/02/11 00:04:46;;;;;;;28.20;18.73;;;9.20;99.90;;;;;;5053506;28;20246;-73
2024/02/11 00:07:13;;;;;;;29.70;18.73;;;9.20;99.90;;;;;;5054259;28;20239;-75
2024/02/11 00:09:40;;;;;;;37.67;22.15;;;9.20;99.90;;;;;;5050968;28;20270;-73
2024/02/11 00:12:08;;;;;;;29.98;20.30;;;9.20;99.90;;;;;;5044565;28;20270;-73
2024/02/11 00:14:35;;;;;;;43.25;20.52;;;9.10;99.90;;;;;;5046979;28;20212;-74
2024/02/11 00:17:02;;;;;;;31.95;19.80;;;9.10;99.90;;;;;;5047534;28;20262;-75
2024/02/11 00:19:30;;;;;;;46.03;24.35;;;9.10;99.90;;;;;;5049673;28;20200;-73
2024/02/11 00:21:58;;;;;;;44.90;25.80;;;9.10;99.90;;;;;;5047594;28;20627;-74
2024/02/11 00:24:29;;;;;;;32.80;19.75;;;9.10;99.90;;;;;;5048389;28;20671;-73
2024/02/11 00:26:56;;;;;;;41.97;21.60;;;9.10;99.90;;;;;;5050367;28;20208;-72
2024/02/11 00:29:23;;;;;;;33.22;19.05;;;9.10;99.90;;;;;;5045337;28;20234;-73
2024/02/11 00:31:51;;;;;;;33.78;20.00;;;9.00;99.90;;;;;;5049475;28;20297;-74
2024/02/11 00:34:19;;;;;;;31.50;19.25;;;9.00;99.90;;;;;;5053555;28;20235;-74
2024/02/11 00:36:47;;;;;;;30.52;18.92;;;9.10;99.90;;;;;;5052940;28;20255;-73
2024/02/11 00:39:16;;;;;;;41.90;22.17;;;9.10;99.90;;;;;;5052585;28;20204;-72
2024/02/11 00:41:43;;;;;;;31.60;19.10;;;9.00;99.90;;;;;;5049473;28;20319;-73
2024/02/11 00:44:11;;;;;;;43.13;20.73;;;9.10;99.90;;;;;;5046890;28;20278;-75
2024/02/11 00:46:38;;;;;;;39.20;21.35;;;9.00;99.90;;;;;;5053299;28;20557;-75
2024/02/11 00:49:06;;;;;;;36.80;21.63;;;9.00;99.90;;;;;;5049186;28;20211;-73
2024/02/11 00:51:33;;;;;;;39.35;21.25;;;9.00;99.90;;;;;;5055188;28;20199;-73
2024/02/11 00:54:03;;;;;;;42.42;21.95;;;9.00;99.90;;;;;;5048607;28;20593;-73
2024/02/11 00:56:32;;;;;;;33.90;21.83;;;9.00;99.90;;;;;;5042053;28;20295;-74
2024/02/11 00:58:59;;;;;;;37.22;22.35;;;9.00;99.90;;;;;;5044826;28;20671;-73
2024/02/11 01:01:26;;;;;;;32.05;20.65;;;9.00;99.90;;;;;;5044224;28;20287;-74
2024/02/11 01:03:56;;;;;;;48.88;24.83;;;9.00;99.90;;;;;;5045458;28;20251;-73
2024/02/11 01:06:23;;;;;;;31.83;19.70;;;8.90;99.90;;;;;;5047508;28;20204;-73
2024/02/11 01:08:50;;;;;;;34.28;21.73;;;8.90;99.90;;;;;;5050777;28;20286;-75
2024/02/11 01:11:18;;;;;;;33.05;21.67;;;8.90;99.90;;;;;;5052682;28;20292;-72
2024/02/11 01:13:47;;;;;;;37.45;22.30;;;8.90;99.90;;;;;;5051589;28;20220;-74
2024/02/11 01:16:14;;;;;;;32.03;20.65;;;8.90;99.90;;;;;;5051102;28;20270;-73
2024/02/11 01:18:43;;;;;;;36.83;21.10;;;8.90;99.90;;;;;;5041169;28;20204;-75
2024/02/11 01:21:10;;;;;;;37.58;21.63;;;9.00;99.90;;;;;;5052486;28;20238;-74
2024/02/11 01:23:36;;;;;;;42.55;22.42;;;9.00;99.90;;;;;;5045153;28;20226;-74
2024/02/11 01:26:04;;;;;;;35.73;22.87;;;8.90;99.90;;;;;;5051008;28;20192;-73
2024/02/11 01:28:31;;;;;;;37.78;21.08;;;8.80;99.90;;;;;;5040917;28;21380;-74
2024/02/11 01:30:59;;;;;;;47.90;26.08;;;8.80;99.90;;;;;;5042294;28;20243;-73
2024/02/11 01:33:26;;;;;;;39.25;21.98;;;8.80;99.90;;;;;;5038737;28;20687;-74
2024/02/11 01:35:53;;;;;;;37.55;22.05;;;8.80;99.90;;;;;;5046502;28;20737;-73
2024/02/11 01:38:20;;;;;;;28.05;18.58;;;8.80;99.90;;;;;;5046398;28;20620;-72
2024/02/11 01:40:47;;;;;;;44.15;24.50;;;8.80;99.90;;;;;;5050407;28;20683;-74
2024/02/11 01:43:14;;;;;;;41.67;25.85;;;8.80;99.90;;;;;;5052414;28;20227;-74
2024/02/11 01:45:41;;;;;;;46.25;21.92;;;8.70;99.90;;;;;;5050744;28;20208;-74
2024/02/11 01:48:10;;;;;;;53.17;27.20;;;8.70;99.90;;;;;;5050997;28;20750;-73
2024/02/11 01:50:38;;;;;;;41.63;22.00;;;8.60;99.90;;;;;;5043708;28;20295;-73
2024/02/11 01:53:09;;;;;;;32.15;20.73;;;8.70;99.90;;;;;;5041548;28;20235;-73
2024/02/11 01:55:39;;;;;;;34.60;20.35;;;8.70;99.90;;;;;;5051159;28;20562;-73
2024/02/11 01:58:07;;;;;;;43.78;23.92;;;8.70;99.90;;;;;;5046904;28;20228;-72
2024/02/11 02:00:35;;;;;;;38.75;21.45;;;8.70;99.90;;;;;;5037589;28;20227;-74
2024/02/11 02:03:04;;;;;;;32.65;19.00;;;8.60;99.90;;;;;;5045771;28;20258;-73
2024/02/11 02:05:33;;;;;;;38.72;22.48;;;8.60;99.90;;;;;;5046006;28;20200;-73
2024/02/11 02:08:03;;;;;;;36.25;20.83;;;8.60;99.90;;;;;;5050136;28;20230;-73
2024/02/11 02:10:30;;;;;;;39.55;24.17;;;8.60;99.90;;;;;;5041442;28;20663;-72
2024/02/11 02:12:57;;;;;;;31.73;18.83;;;8.60;99.90;;;;;;5049082;28;20682;-75
2024/02/11 02:15:24;;;;;;;39.22;22.20;;;8.60;99.90;;;;;;5046335;28;20223;-75
2024/02/11 02:17:51;;;;;;;40.80;21.33;;;8.60;99.90;;;;;;5049646;28;20236;-72
2024/02/11 02:20:18;;;;;;;40.55;25.05;;;8.60;99.90;;;;;;5045305;28;20200;-73
2024/02/11 02:22:48;;;;;;;40.17;22.88;;;8.60;99.90;;;;;;5044021;28;20275;-75
2024/02/11 02:25:15;;;;;;;39.65;23.02;;;8.50;99.90;;;;;;5051429;28;20301;-74
2024/02/11 02:27:43;;;;;;;35.03;19.42;;;8.50;99.90;;;;;;5053204;28;20639;-73
2024/02/11 02:30:11;;;;;;;52.03;23.92;;;8.50;99.90;;;;;;5055209;28;20211;-73
2024/02/11 02:32:38;;;;;;;35.95;22.73;;;8.50;99.90;;;;;;5050591;28;20285;-73
2024/02/11 02:35:05;;;;;;;38.88;21.58;;;8.50;99.90;;;;;;5050458;28;20250;-75
2024/02/11 02:37:32;;;;;;;34.10;21.20;;;8.50;99.90;;;;;;5048101;28;20232;-74
2024/02/11 02:40:02;;;;;;;39.63;21.35;;;8.50;99.90;;;;;;5051652;28;20212;-75
2024/02/11 02:42:29;;;;;;;33.88;18.20;;;8.50;99.90;;;;;;5052695;28;20724;-73
2024/02/11 02:44:56;;;;;;;32.47;18.35;;;8.50;99.90;;;;;;5055327;28;20250;-73
2024/02/11 02:47:23;;;;;;;27.95;19.85;;;8.50;99.90;;;;;;5052663;28;20227;-72
2024/02/11 02:49:50;;;;;;;40.45;25.42;;;8.50;99.90;;;;;;5052666;28;20200;-74
2024/02/11 02:52:17;;;;;;;45.33;24.40;;;8.60;99.90;;;;;;5042088;28;20627;-74
2024/02/11 02:54:44;;;;;;;40.67;23.50;;;8.60;99.90;;;;;;5053169;28;20253;-73
2024/02/11 02:57:15;;;;;;;29.15;18.30;;;8.50;99.90;;;;;;5042548;28;20216;-73
2024/02/11 02:59:42;;;;;;;30.20;19.67;;;8.50;99.90;;;;;;5053813;28;20272;-74
2024/02/11 03:02:10;;;;;;;38.78;21.48;;;8.40;99.90;;;;;;5049469;28;20208;-74
2024/02/11 03:04:38;;;;;;;36.05;19.85;;;8.50;99.90;;;;;;5046790;28;20226;-73
2024/02/11 03:07:06;;;;;;;31.55;20.13;;;8.50;99.90;;;;;;5051818;28;20204;-72
2024/02/11 03:09:34;;;;;;;35.65;20.92;;;8.50;99.90;;;;;;5045256;28;20205;-72
2024/02/11 03:12:01;;;;;;;37.70;21.65;;;8.40;99.90;;;;;;5042271;28;20212;-73
2024/02/11 03:14:31;;;;;;;32.25;18.52;;;8.50;99.90;;;;;;5048498;28;20248;-73
2024/02/11 03:16:58;;;;;;;32.22;17.98;;;8.40;99.90;;;;;;5045639;28;20705;-74
2024/02/11 03:19:26;;;;;;;45.63;22.60;;;8.40;99.90;;;;;;5048012;28;20203;-74
2024/02/11 03:21:53;;;;;;;34.42;20.60;;;8.50;99.90;;;;;;5045853;28;20204;-72
2024/02/11 03:24:20;;;;;;;30.08;19.30;;;8.50;99.90;;;;;;5134256;23;20232;-73
2024/02/11 03:26:47;;;;;;;36.13;20.90;;;8.50;99.90;;;;;;5073824;28;20229;-72
2024/02/11 03:29:19;;;;;;;38.58;21.75;;;8.40;99.90;;;;;;5074524;28;20207;-76
2024/02/11 03:31:48;;;;;;;30.23;19.05;;;8.40;99.90;;;;;;5071372;28;20294;-74
2024/02/11 03:34:15;;;;;;;30.60;19.60;;;8.40;99.90;;;;;;5075355;28;20277;-73
2024/02/11 03:36:42;;;;;;;39.83;22.05;;;8.40;99.90;;;;;;5074414;28;20239;-74
2024/02/11 03:39:10;;;;;;;33.45;19.20;;;8.30;99.90;;;;;;5071688;28;20199;-74
2024/02/11 03:41:37;;;;;;;42.58;20.73;;;8.30;99.90;;;;;;5061869;28;20349;-73
2024/02/11 03:44:06;;;;;;;46.90;22.38;;;8.30;99.90;;;;;;5067042;28;20291;-73
2024/02/11 03:46:32;;;;;;;40.60;20.05;;;8.30;99.90;;;;;;5071461;28;20286;-74
2024/02/11 03:49:03;;;;;;;35.55;18.60;;;8.30;99.90;;;;;;5071954;28;20269;-73
2024/02/11 03:51:30;;;;;;;33.97;19.35;;;8.40;99.90;;;;;;5073424;28;20211;-73
2024/02/11 03:53:59;;;;;;;43.28;23.35;;;8.40;99.90;;;;;;5073753;28;20225;-72
2024/02/11 03:56:28;;;;;;;36.88;21.42;;;8.30;99.90;;;;;;5072060;28;20239;-75
2024/02/11 03:58:55;;;;;;;43.20;21.65;;;8.30;99.90;;;;;;5071079;28;20269;-74
2024/02/11 04:01:23;;;;;;;53.22;23.92;;;8.30;99.90;;;;;;5073899;28;20211;-72
2024/02/11 04:03:49;;;;;;;44.38;22.00;;;8.30;99.90;;;;;;5069205;28;20236;-73
2024/02/11 04:06:20;;;;;;;39.55;21.27;;;8.40;99.90;;;;;;5067750;28;20665;-72
2024/02/11 04:08:49;;;;;;;38.05;22.77;;;8.40;99.90;;;;;;5068670;28;20200;-73
2024/02/11 04:11:19;;;;;;;34.40;21.50;;;8.40;99.90;;;;;;5073683;28;20199;-73
2024/02/11 04:13:46;;;;;;;34.75;22.08;;;8.30;99.90;;;;;;5072848;28;20581;-73
2024/02/11 04:16:15;;;;;;;57.67;26.27;;;8.30;99.90;;;;;;5073890;28;20219;-72
2024/02/11 04:18:45;;;;;;;43.08;23.38;;;8.20;99.90;;;;;;5062185;28;20287;-76
2024/02/11 04:21:12;;;;;;;46.22;21.63;;;8.20;99.90;;;;;;5065648;28;20225;-73
2024/02/11 04:23:40;;;;;;;53.17;24.20;;;8.20;99.90;;;;;;5072847;28;20689;-75
2024/02/11 04:26:10;;;;;;;55.60;27.20;;;8.20;99.90;;;;;;5069882;28;20752;-73
2024/02/11 04:28:37;;;;;;;36.67;24.30;;;8.20;99.90;;;;;;5068127;28;20287;-74
2024/02/11 04:31:08;;;;;;;38.25;22.02;;;8.20;99.90;;;;;;5071063;28;20258;-74
2024/02/11 04:33:38;;;;;;;35.85;22.02;;;8.20;99.90;;;;;;5073386;28;20307;-74
2024/02/11 04:36:07;;;;;;;41.92;24.35;;;8.20;99.90;;;;;;5072890;28;20303;-73
2024/02/11 04:38:35;;;;;;;38.22;24.50;;;8.30;99.90;;;;;;5072225;28;20230;-73
2024/02/11 04:41:04;;;;;;;49.03;25.17;;;8.20;99.90;;;;;;5071051;28;20282;-73
2024/02/11 04:43:33;;;;;;;35.35;21.30;;;8.20;99.90;;;;;;5070479;28;20285;-73
2024/02/11 04:46:02;;;;;;;34.38;18.75;;;8.20;99.90;;;;;;5071656;28;20202;-73
2024/02/11 04:48:31;;;;;;;50.03;24.85;;;8.10;99.90;;;;;;5067408;28;20234;-72
2024/02/11 04:50:58;;;;;;;43.13;20.30;;;8.10;99.90;;;;;;5072021;28;20619;-73
2024/02/11 04:53:26;;;;;;;33.55;19.63;;;8.10;99.90;;;;;;5062830;28;20227;-73
2024/02/11 04:55:54;;;;;;;41.58;23.05;;;8.10;99.90;;;;;;5069206;28;20200;-74
2024/02/11 04:58:26;;;;;;;46.03;25.38;;;8.10;99.90;;;;;;5068935;28;20216;-74
2024/02/11 05:00:54;;;;;;;45.90;23.42;;;8.10;99.90;;;;;;5072379;28;20205;-73
2024/02/11 05:03:21;;;;;;;53.22;25.13;;;8.00;99.90;;;;;;5072284;28;20614;-72
2024/02/11 05:05:49;;;;;;;55.20;27.42;;;8.00;99.90;;;;;;5071237;28;20195;-72
2024/02/11 05:08:17;;;;;;;66.65;28.25;;;8.00;99.90;;;;;;5070763;28;20203;-73
2024/02/11 05:10:45;;;;;;;41.70;21.60;;;8.00;99.90;;;;;;5071980;28;20204;-72
2024/02/11 05:13:14;;;;;;;43.13;24.30;;;8.00;99.90;;;;;;5067263;28;20227;-74
2024/02/11 05:15:44;;;;;;;53.53;26.38;;;8.00;99.90;;;;;;5071275;28;20231;-73
2024/02/11 05:18:12;;;;;;;47.65;25.17;;;8.10;99.90;;;;;;5067377;28;20285;-72
2024/02/11 05:20:40;;;;;;;38.90;21.27;;;8.10;99.90;;;;;;5069937;28;20195;-72
2024/02/11 05:23:09;;;;;;;43.58;22.08;;;8.10;99.90;;;;;;5072085;28;20258;-73
2024/02/11 05:25:36;;;;;;;52.95;24.00;;;8.10;99.90;;;;;;5070640;28;20261;-72
2024/02/11 05:28:07;;;;;;;49.00;23.38;;;8.10;99.90;;;;;;5073932;28;20291;-74
2024/02/11 05:30:34;;;;;;;36.42;21.52;;;8.10;99.90;;;;;;5069240;28;20211;-73
2024/02/11 05:33:06;;;;;;;42.20;22.58;;;8.10;99.90;;;;;;5071210;28;20284;-73
2024/02/11 05:35:35;;;;;;;43.33;22.50;;;8.10;99.90;;;;;;5072052;28;20210;-71
2024/02/11 05:38:02;;;;;;;52.03;25.58;;;8.10;99.90;;;;;;5071295;28;20627;-73
2024/02/11 05:40:31;;;;;;;43.17;21.92;;;8.10;99.90;;;;;;5065360;28;20204;-74
2024/02/11 05:43:00;;;;;;;49.85;26.40;;;8.10;99.90;;;;;;5066763;28;20297;-73
2024/02/11 05:45:27;;;;;;;54.40;24.30;;;8.10;99.90;;;;;;5067519;28;20322;-73
2024/02/11 05:47:55;;;;;;;67.45;28.33;;;8.10;99.90;;;;;;5071814;28;20256;-74
2024/02/11 05:50:26;;;;;;;37.95;20.33;;;8.10;99.90;;;;;;5063606;28;20288;-73
2024/02/11 05:52:54;;;;;;;45.65;25.02;;;8.10;99.90;;;;;;5058499;28;20241;-74
2024/02/11 05:55:22;;;;;;;32.20;21.50;;;8.00;99.90;;;;;;5069432;28;20199;-73
2024/02/11 05:57:50;;;;;;;40.38;21.55;;;8.00;99.90;;;;;;5071274;28;20215;-74
2024/02/11 06:00:22;;;;;;;53.85;26.75;;;8.00;99.90;;;;;;5067266;28;20231;-74
2024/02/11 06:02:50;;;;;;;65.90;27.88;;;8.00;99.90;;;;;;5068903;28;20219;-72
2024/02/11 06:05:18;;;;;;;53.35;24.02;;;8.00;99.90;;;;;;5072492;28;20254;-73
2024/02/11 06:07:49;;;;;;;45.20;25.58;;;8.00;99.90;;;;;;5076433;28;20642;-73
2024/02/11 06:10:17;;;;;;;47.78;24.08;;;8.00;99.90;;;;;;5064405;28;20282;-73
2024/02/11 06:12:45;;;;;;;41.58;21.98;;;8.10;99.90;;;;;;5075543;28;20910;-72
2024/02/11 06:15:14;;;;;;;50.58;24.40;;;8.10;99.90;;;;;;5072450;28;20227;-73
2024/02/11 06:17:41;;;;;;;41.88;21.63;;;8.10;99.90;;;;;;5072029;28;20207;-73
2024/02/11 06:20:13;;;;;;;68.32;28.27;;;8.10;99.90;;;;;;5071018;28;20658;-73
2024/02/11 06:22:40;;;;;;;40.55;23.10;;;8.10;99.90;;;;;;5070484;28;20235;-73
2024/02/11 06:25:09;;;;;;;57.90;27.55;;;8.10;99.90;;;;;;5074009;28;20203;-74
2024/02/11 06:27:38;;;;;;;44.50;23.48;;;8.10;99.90;;;;;;5075922;28;20264;-74
2024/02/11 06:30:08;;;;;;;68.00;28.10;;;8.10;99.90;;;;;;5073750;28;20216;-73
2024/02/11 06:32:36;;;;;;;44.88;21.65;;;8.10;99.90;;;;;;5069400;28;20302;-73
2024/02/11 06:35:04;;;;;;;41.35;21.35;;;8.20;99.90;;;;;;5064403;28;20211;-73
2024/02/11 06:37:32;;;;;;;51.85;24.25;;;8.30;99.90;;;;;;5071684;28;20211;-73
2024/02/11 06:39:59;;;;;;;53.28;25.60;;;8.20;99.90;;;;;;5074053;28;20282;-75
2024/02/11 06:42:30;;;;;;;54.28;25.98;;;8.30;99.90;;;;;;5073731;28;20229;-74
2024/02/11 06:44:58;;;;;;;59.55;27.77;;;8.20;99.90;;;;;;5073557;28;20568;-75
2024/02/11 06:47:26;;;;;;;37.08;21.05;;;8.20;99.90;;;;;;5070132;28;20232;-73
2024/02/11 06:49:53;;;;;;;50.42;24.15;;;8.20;99.90;;;;;;5073503;28;20238;-74
2024/02/11 06:52:20;;;;;;;48.15;23.30;;;8.30;99.90;;;;;;5074875;28;20223;-74
2024/02/11 06:54:49;;;;;;;53.72;24.20;;;8.20;99.90;;;;;;5074517;28;20199;-73
2024/02/11 06:57:16;;;;;;;35.53;20.83;;;8.10;99.90;;;;;;5074836;28;20199;-73
2024/02/11 06:59:44;;;;;;;50.90;24.20;;;8.20;99.90;;;;;;5074069;28;20689;-73
2024/02/11 07:02:11;;;;;;;46.53;23.33;;;8.20;99.90;;;;;;5074553;28;20227;-73
2024/02/11 07:04:38;;;;;;;43.95;23.52;;;8.20;99.90;;;;;;5074546;28;20638;-74
2024/02/11 07:07:06;;;;;;;56.72;26.65;;;8.20;99.90;;;;;;5070495;28;20200;-73
2024/02/11 07:09:33;;;;;;;68.47;27.90;;;8.10;99.90;;;;;;5068165;28;20246;-74
2024/02/11 07:12:00;;;;;;;50.70;23.40;;;8.10;99.90;;;;;;5071834;28;20296;-74
2024/02/11 07:14:28;;;;;;;40.42;20.92;;;8.10;99.90;;;;;;5069359;28;20243;-72
2024/02/11 07:16:58;;;;;;;43.08;19.70;;;8.10;99.90;;;;;;5067607;28;20195;-73
2024/02/11 07:19:25;;;;;;;46.40;22.60;;;8.10;99.90;;;;;;5074398;28;20226;-73
2024/02/11 07:21:52;;;;;;;34.38;18.92;;;8.10;99.90;;;;;;5074564;28;20288;-74
2024/02/11 07:24:19;;;;;;;46.28;22.30;;;8.10;99.90;;;;;;5074183;28;20622;-75
2024/02/11 07:26:48;;;;;;;41.10;21.60;;;8.10;99.90;;;;;;5072171;28;20614;-73
2024/02/11 07:29:15;;;;;;;42.58;22.50;;;8.10;99.90;;;;;;5066801;28;20525;-73
2024/02/11 07:31:43;;;;;;;31.17;18.00;;;8.10;99.90;;;;;;5074537;28;20290;-73
2024/02/11 07:34:11;;;;;;;41.95;20.98;;;8.10;99.90;;;;;;5070305;28;20250;-73
2024/02/11 07:36:38;;;;;;;46.45;22.15;;;8.10;99.90;;;;;;5070122;28;20215;-74
2024/02/11 07:39:05;;;;;;;44.85;21.80;;;8.10;99.90;;;;;;5071895;28;20295;-75
2024/02/11 07:41:35;;;;;;;33.20;17.15;;;8.10;99.90;;;;;;5068832;28;20203;-74
2024/02/11 07:44:04;;;;;;;44.22;18.52;;;8.00;99.90;;;;;;5072669;28;20351;-74
2024/02/11 07:46:31;;;;;;;48.67;23.30;;;8.10;99.90;;;;;;5074550;28;20203;-75
2024/02/11 07:49:03;;;;;;;44.47;21.00;;;8.10;99.90;;;;;;5065572;28;20210;-74
2024/02/11 07:51:32;;;;;;;34.35;18.33;;;8.10;99.90;;;;;;5072438;28;20674;-74
2024/02/11 07:54:00;;;;;;;34.75;17.00;;;8.10;99.90;;;;;;5072037;28;20750;-75
2024/02/11 07:56:29;;;;;;;33.60;18.17;;;8.10;99.90;;;;;;5074304;28;20203;-73
2024/02/11 07:58:56;;;;;;;32.78;19.40;;;8.10;99.90;;;;;;5066231;28;20709;-73
2024/02/11 08:01:23;;;;;;;37.88;20.38;;;8.10;99.90;;;;;;5071103;28;20238;-75
2024/02/11 08:03:50;;;;;;;30.27;19.80;;;8.10;99.90;;;;;;5071633;28;20280;-73
2024/02/11 08:06:17;;;;;;;43.55;20.73;;;8.20;99.90;;;;;;5070733;28;20200;-73
2024/02/11 08:08:47;;;;;;;39.22;21.52;;;8.20;99.90;;;;;;5070624;28;20196;-75
2024/02/11 08:11:13;;;;;;;34.83;18.65;;;8.20;99.90;;;;;;5072573;28;20722;-75
2024/02/11 08:13:40;;;;;;;43.60;22.42;;;8.20;99.90;;;;;;5073586;28;20713;-78
2024/02/11 08:16:11;;;;;;;46.95;23.65;;;8.20;99.90;;;;;;5070607;28;20685;-75
2024/02/11 08:18:38;;;;;;;54.90;23.33;;;8.20;99.90;;;;;;5068887;28;20247;-76
2024/02/11 08:21:06;;;;;;;53.85;23.13;;;8.20;99.90;;;;;;5069695;28;20603;-76
2024/02/11 08:23:33;;;;;;;33.35;20.30;;;8.20;99.90;;;;;;5073044;28;20593;-76
2024/02/11 08:26:02;;;;;;;39.72;21.88;;;8.30;99.90;;;;;;5072767;28;20723;-74
2024/02/11 08:28:29;;;;;;;52.03;23.98;;;8.30;99.90;;;;;;5072232;28;20200;-76
2024/02/11 08:30:56;;;;;;;43.47;20.60;;;8.30;99.90;;;;;;5072210;28;20207;-74
2024/02/11 08:33:23;;;;;;;33.17;18.70;;;8.30;99.90;;;;;;5071107;28;20271;-73
2024/02/11 08:35:52;;;;;;;44.55;22.27;;;8.30;99.90;;;;;;5067592;28;20302;-76
2024/02/11 08:38:19;;;;;;;35.22;19.23;;;8.20;99.90;;;;;;5073692;28;20203;-74
2024/02/11 08:40:46;;;;;;;40.85;20.40;;;8.30;99.90;;;;;;5072418;28;20253;-75
2024/02/11 08:43:14;;;;;;;53.70;24.00;;;8.30;99.90;;;;;;5072537;28;20695;-74
2024/02/11 08:45:41;;;;;;;58.97;23.30;;;8.30;99.90;;;;;;5073563;28;20248;-74
2024/02/11 08:48:09;;;;;;;60.72;27.63;;;8.30;99.90;;;;;;5071987;28;20590;-74
2024/02/11 08:50:36;;;;;;;45.00;21.70;;;8.30;99.90;;;;;;5070539;28;20621;-73
2024/02/11 08:53:03;;;;;;;54.83;23.27;;;8.30;99.90;;;;;;5068487;28;20778;-73
2024/02/11 08:55:30;;;;;;;45.38;23.50;;;8.30;99.90;;;;;;5066999;28;20200;-73
2024/02/11 08:57:59;;;;;;;41.70;20.42;;;8.30;99.90;;;;;;5070125;28;20214;-72
2024/02/11 09:00:29;;;;;;;44.03;22.27;;;8.30;99.90;;;;;;5067138;28;20253;-74
2024/02/11 09:02:56;;;;;;;32.15;19.73;;;8.40;99.90;;;;;;5069573;28;20234;-72
2024/02/11 09:05:24;;;;;;;61.45;25.88;;;8.30;99.90;;;;;;5072062;28;20637;-74
2024/02/11 09:07:51;;;;;;;49.88;21.05;;;8.40;99.90;;;;;;5062042;28;20210;-73
2024/02/11 09:10:19;;;;;;;41.10;22.20;;;8.40;99.90;;;;;;5071924;28;20257;-71
2024/02/11 09:12:47;;;;;;;40.28;21.55;;;8.50;99.90;;;;;;5069921;28;20632;-72
2024/02/11 09:15:15;;;;;;;36.33;19.70;;;8.50;99.90;;;;;;5067664;28;20203;-76
2024/02/11 09:17:44;;;;;;;43.63;21.35;;;8.50;99.90;;;;;;5068415;28;20200;-75
2024/02/11 09:20:16;;;;;;;31.60;21.60;;;8.50;99.90;;;;;;5070755;28;20215;-74
2024/02/11 09:22:43;;;;;;;52.97;23.38;;;8.50;99.90;;;;;;5072011;28;20215;-72
2024/02/11 09:25:13;;;;;;;39.33;20.35;;;8.50;99.90;;;;;;5070857;28;20220;-73
2024/02/11 09:27:41;;;;;;;51.58;23.70;;;8.50;99.90;;;;;;5070672;28;20214;-73
2024/02/11 09:30:11;;;;;;;48.60;22.95;;;8.50;99.90;;;;;;5070378;28;20217;-74
2024/02/11 09:32:39;;;;;;;38.47;20.40;;;8.50;99.90;;;;;;5063349;28;20311;-70
2024/02/11 09:35:09;;;;;;;40.42;21.35;;;8.50;99.90;;;;;;5062488;28;20231;-73
2024/02/11 09:37:36;;;;;;;45.33;21.48;;;8.50;99.90;;;;;;5070818;28;20619;-72
2024/02/11 09:40:03;;;;;;;36.95;18.85;;;8.50;99.90;;;;;;5063802;28;20212;-75
2024/02/11 09:42:30;;;;;;;41.00;21.88;;;8.50;99.90;;;;;;5069998;28;20251;-74
2024/02/11 09:44:59;;;;;;;32.08;18.45;;;8.60;99.90;;;;;;5071595;28;20233;-72
2024/02/11 09:47:26;;;;;;;43.90;22.05;;;8.60;99.90;;;;;;5071576;28;20207;-73
2024/02/11 09:49:56;;;;;;;42.90;21.83;;;8.60;99.90;;;;;;5066493;28;20280;-71
2024/02/11 09:52:25;;;;;;;45.22;20.33;;;8.60;99.90;;;;;;5072307;28;20303;-71
2024/02/11 09:54:53;;;;;;;40.03;20.52;;;8.50;99.90;;;;;;5071573;28;20204;-74
2024/02/11 09:57:20;;;;;;;42.47;21.38;;;8.60;99.90;;;;;;5071084;28;20197;-72
2024/02/11 09:59:47;;;;;;;38.28;20.23;;;8.60;99.90;;;;;;5060245;28;20220;-71
2024/02/11 10:02:19;;;;;;;36.20;19.45;;;8.70;99.90;;;;;;5071002;28;20751;-70
2024/02/11 10:04:46;;;;;;;41.72;22.45;;;8.60;99.90;;;;;;5072129;28;20709;-71
2024/02/11 10:07:24;;;;;;;35.15;20.92;;;8.60;99.90;;;;;;5068660;28;20286;-72
2024/02/11 10:09:51;;;;;;;44.40;21.33;;;8.60;99.90;;;;;;5061427;28;20234;-71
2024/02/11 10:12:19;;;;;;;37.03;22.58;;;8.60;99.90;;;;;;5070851;28;20301;-75
2024/02/11 10:14:57;;;;;;;40.97;21.38;;;8.60;99.90;;;;;;5071718;28;20207;-73
2024/02/11 10:17:25;;;;;;;34.50;19.27;;;8.50;99.90;;;;;;5071701;28;20502;-69
2024/02/11 10:19:53;;;;;;;36.25;18.90;;;8.60;99.90;;;;;;5070461;28;20233;-70
2024/02/11 10:22:21;;;;;;;44.35;22.30;;;8.70;99.90;;;;;;5069243;28;20310;-73
2024/02/11 10:24:49;;;;;;;37.25;20.20;;;8.70;99.90;;;;;;5070908;28;20250;-70
2024/02/11 10:27:18;;;;;;;38.67;22.35;;;8.80;99.90;;;;;;5071062;28;20239;-71
2024/02/11 10:29:48;;;;;;;47.78;21.10;;;8.90;99.90;;;;;;5070758;28;20219;-71
2024/02/11 10:32:16;;;;;;;35.92;20.67;;;8.90;99.90;;;;;;5068800;28;20251;-72
2024/02/11 10:34:44;;;;;;;40.42;21.33;;;8.90;99.90;;;;;;5066401;28;20196;-71
2024/02/11 10:37:12;;;;;;;37.00;18.40;;;8.90;99.90;;;;;;5070757;28;20199;-74
2024/02/11 10:39:40;;;;;;;42.80;21.80;;;8.90;99.90;;;;;;5064197;28;20223;-71
2024/02/11 10:42:10;;;;;;;43.60;21.88;;;8.90;99.90;;;;;;5069274;28;20290;-70
2024/02/11 10:44:39;;;;;;;41.72;19.08;;;9.00;99.90;;;;;;5069804;28;20199;-73
2024/02/11 10:47:07;;;;;;;52.72;23.38;;;9.00;99.90;;;;;;5070954;28;20279;-72
2024/02/11 10:49:39;;;;;;;35.40;17.83;;;9.00;99.90;;;;;;5075667;28;20222;-73
2024/02/11 10:52:09;;;;;;;54.00;24.02;;;9.00;99.90;;;;;;5073065;28;20192;-74
2024/02/11 10:54:41;;;;;;;59.88;25.88;;;8.90;99.90;;;;;;5069772;28;20203;-73
2024/02/11 10:57:19;;;;;;;33.47;19.48;;;9.00;99.90;;;;;;5073978;28;20206;-72
2024/02/11 10:59:52;;;;;;;40.65;19.85;;;9.00;99.90;;;;;;5067786;28;20215;-74
2024/02/11 11:02:21;;;;;;;41.25;23.45;;;9.10;99.90;;;;;;5072881;28;20288;-73
2024/02/11 11:04:50;;;;;;;34.65;18.02;;;9.00;99.90;;;;;;5074098;28;20207;-74
2024/02/11 11:07:20;;;;;;;33.50;18.88;;;9.10;99.90;;;;;;5067617;28;20249;-72
2024/02/11 11:09:48;;;;;;;39.30;23.70;;;9.10;99.90;;;;;;5067336;28;20207;-73
2024/02/11 11:12:18;;;;;;;41.50;21.52;;;9.20;99.90;;;;;;5071462;28;20230;-73
2024/02/11 11:14:47;;;;;;;40.45;22.48;;;9.20;99.90;;;;;;5070059;28;20714;-75
2024/02/11 11:17:20;;;;;;;40.55;22.65;;;9.20;99.90;;;;;;5073309;28;20261;-74
2024/02/11 11:19:52;;;;;;;40.97;21.92;;;9.20;99.90;;;;;;5068352;28;20227;-73
2024/02/11 11:22:26;;;;;;;35.35;18.73;;;9.10;99.90;;;;;;5073342;28;20215;-75
2024/02/11 11:24:54;;;;;;;45.20;20.83;;;9.10;99.90;;;;;;5069210;28;20333;-75
2024/02/11 11:27:23;;;;;;;48.63;23.60;;;9.10;99.90;;;;;;5072334;28;20205;-72
2024/02/11 11:29:52;;;;;;;39.25;18.75;;;9.10;99.90;;;;;;5073489;28;20716;-74
2024/02/11 11:32:22;;;;;;;43.05;22.75;;;9.10;99.90;;;;;;5068808;28;20245;-75
2024/02/11 11:34:50;;;;;;;45.47;21.90;;;9.10;99.90;;;;;;5069467;28;20278;-75
2024/02/11 11:37:18;;;;;;;42.92;21.63;;;9.10;99.90;;;;;;5069454;28;20282;-75
2024/02/11 11:39:45;;;;;;;40.10;23.40;;;9.10;99.90;;;;;;5067052;28;20250;-74
2024/02/11 11:42:12;;;;;;;42.65;21.73;;;9.10;99.90;;;;;;5070917;28;20231;-73
2024/02/11 11:44:41;;;;;;;46.90;25.50;;;9.10;99.90;;;;;;5056054;28;20196;-73
2024/02/11 11:47:08;;;;;;;39.95;20.38;;;9.10;99.90;;;;;;5070967;28;20208;-72
2024/02/11 11:49:37;;;;;;;45.95;22.17;;;9.10;99.90;;;;;;5066697;28;20250;-76
2024/02/11 11:52:04;;;;;;;49.63;21.88;;;9.20;99.90;;;;;;5071588;28;20645;-71
2024/02/11 11:54:32;;;;;;;44.35;24.67;;;9.20;99.90;;;;;;5070890;28;20234;-72
2024/02/11 11:57:00;;;;;;;40.08;19.95;;;9.20;99.90;;;;;;5073949;28;20599;-73
2024/02/11 11:59:29;;;;;;;45.58;22.35;;;9.20;99.90;;;;;;5071429;28;20203;-75
2024/02/11 12:01:57;;;;;;;41.25;24.25;;;9.10;99.90;;;;;;5072449;28;20249;-74
2024/02/11 12:04:26;;;;;;;39.40;21.23;;;9.30;99.90;;;;;;5074285;28;20196;-74
2024/02/11 12:06:53;;;;;;;40.10;21.55;;;9.30;99.90;;;;;;5074222;28;20257;-72
2024/02/11 12:09:21;;;;;;;43.20;21.48;;;9.30;99.90;;;;;;5073186;28;20642;-72
2024/02/11 12:11:48;;;;;;;34.08;18.90;;;9.40;99.90;;;;;;5073796;28;20231;-72
2024/02/11 12:14:18;;;;;;;34.90;20.45;;;9.40;99.90;;;;;;5073186;28;20218;-75
2024/02/11 12:16:45;;;;;;;38.45;22.27;;;9.50;99.90;;;;;;5072878;28;20223;-73
2024/02/11 12:19:13;;;;;;;38.28;21.88;;;9.60;99.90;;;;;;5074846;28;20241;-74
2024/02/11 12:21:40;;;;;;;32.08;17.90;;;9.60;99.90;;;;;;5068566;28;20211;-74
2024/02/11 12:24:09;;;;;;;32.90;18.50;;;9.60;99.90;;;;;;5068307;28;20255;-73
2024/02/11 12:26:37;;;;;;;37.15;21.38;;;9.60;99.90;;;;;;5067359;28;20668;-72
2024/02/11 12:29:04;;;;;;;41.17;19.92;;;9.70;99.90;;;;;;5069839;28;20533;-74
2024/02/11 12:31:32;;;;;;;43.53;24.85;;;9.70;99.90;;;;;;5072462;28;20634;-77
2024/02/11 12:34:00;;;;;;;44.20;22.58;;;9.70;99.90;;;;;;5067119;28;20716;-73
2024/02/11 12:36:29;;;;;;;46.60;24.92;;;9.80;99.90;;;;;;5073476;28;20211;-73
2024/02/11 12:38:57;;;;;;;36.92;19.92;;;9.70;99.90;;;;;;5072201;28;20203;-74
2024/02/11 12:41:26;;;;;;;46.20;23.65;;;9.80;99.90;;;;;;5071630;28;20234;-72